createdAt,value
2023-04-15T00:00:40.340Z,526.00
2023-04-15T00:01:40.430Z,526.00
2023-04-15T00:02:40.960Z,530.00
2023-04-15T00:03:40.883Z,530.00
2023-04-15T00:04:40.690Z,540.00
2023-04-15T00:05:40.655Z,537.00
2023-04-15T00:06:40.721Z,537.00
2023-04-15T00:07:40.753Z,543.00
2023-04-15T00:08:40.794Z,543.00
2023-04-15T00:09:40.864Z,550.00
2023-04-15T00:10:40.901Z,547.00
2023-04-15T00:11:40.994Z,551.00
2023-04-15T00:12:41.583Z,551.00
2023-04-15T00:13:41.132Z,547.00
2023-04-15T00:14:41.156Z,561.00
2023-04-15T00:15:41.215Z,567.00
2023-04-15T00:16:41.326Z,570.00
2023-04-15T00:17:41.368Z,574.00
2023-04-15T00:18:41.417Z,576.00
2023-04-15T00:19:41.461Z,578.00
2023-04-15T00:20:41.528Z,583.00
2023-04-15T00:21:41.583Z,585.00
2023-04-15T00:22:41.612Z,579.00
2023-04-15T00:23:41.683Z,574.00
2023-04-15T00:24:41.726Z,570.00
2023-04-15T00:25:41.819Z,571.00
2023-04-15T00:26:41.922Z,568.00
2023-04-15T00:27:41.921Z,561.00
2023-04-15T00:28:42.006Z,556.00
2023-04-15T00:29:42.095Z,557.00
2023-04-15T00:30:42.266Z,559.00
2023-04-15T00:31:42.210Z,554.00
2023-04-15T00:32:42.282Z,559.00
2023-04-15T00:33:42.335Z,567.00
2023-04-15T00:34:42.371Z,570.00
2023-04-15T00:35:42.614Z,575.00
2023-04-15T00:36:42.500Z,579.00
2023-04-15T00:37:43.604Z,579.00
2023-04-15T00:38:42.625Z,579.00
2023-04-15T00:39:42.637Z,583.00
2023-04-15T00:40:42.748Z,576.00
2023-04-15T00:41:42.825Z,574.00
2023-04-15T00:42:42.831Z,577.00
2023-04-15T00:43:42.955Z,570.00
2023-04-15T00:44:42.988Z,571.00
2023-04-15T00:45:43.090Z,566.00
2023-04-15T00:46:43.142Z,561.00
2023-04-15T00:47:43.254Z,562.00
2023-04-15T00:48:43.271Z,563.00
2023-04-15T00:49:43.256Z,562.00
2023-04-15T00:50:43.317Z,558.00
2023-04-15T00:51:43.374Z,551.00
2023-04-15T00:52:43.415Z,558.00
2023-04-15T00:53:43.437Z,563.00
2023-04-15T00:54:43.498Z,552.00
2023-04-15T00:55:43.508Z,561.00
2023-04-15T00:56:43.530Z,565.00
2023-04-15T00:57:43.566Z,562.00
2023-04-15T00:58:43.577Z,564.00
2023-04-15T00:59:43.634Z,568.00
2023-04-15T01:00:43.672Z,574.00
2023-04-15T01:01:43.748Z,568.00
2023-04-15T01:02:43.825Z,573.00
2023-04-15T01:03:43.894Z,574.00
2023-04-15T01:04:43.810Z,576.00
2023-04-15T01:05:43.817Z,572.00
2023-04-15T01:06:43.910Z,580.00
2023-04-15T01:07:43.791Z,581.00
2023-04-15T01:08:43.805Z,581.00
2023-04-15T01:09:43.839Z,578.00
2023-04-15T01:10:43.829Z,580.00
2023-04-15T01:11:43.918Z,574.00
2023-04-15T01:12:43.890Z,577.00
2023-04-15T01:13:43.934Z,574.00
2023-04-15T01:14:43.955Z,583.00
2023-04-15T01:15:44.012Z,576.00
2023-04-15T01:16:43.927Z,584.00
2023-04-15T01:17:43.983Z,581.00
2023-04-15T01:18:43.970Z,590.00
2023-04-15T01:19:43.908Z,589.00
2023-04-15T01:20:43.981Z,585.00
2023-04-15T01:21:43.959Z,594.00
2023-04-15T01:22:44.029Z,596.00
2023-04-15T01:23:44.049Z,599.00
2023-04-15T01:24:44.148Z,608.00
2023-04-15T01:25:44.171Z,604.00
2023-04-15T01:26:44.690Z,601.00
2023-04-15T01:27:44.357Z,596.00
2023-04-15T01:28:44.387Z,600.00
2023-04-15T01:29:44.379Z,597.00
2023-04-15T01:30:44.465Z,593.00
2023-04-15T01:31:44.575Z,594.00
2023-04-15T01:32:44.549Z,590.00
2023-04-15T01:33:44.585Z,597.00
2023-04-15T01:34:44.628Z,593.00
2023-04-15T01:35:44.694Z,590.00
2023-04-15T01:36:44.748Z,594.00
2023-04-15T01:37:44.804Z,598.00
2023-04-15T01:38:44.870Z,598.00
2023-04-15T01:39:44.846Z,600.00
2023-04-15T01:40:44.915Z,601.00
2023-04-15T01:41:44.973Z,602.00
2023-04-15T01:42:45.005Z,607.00
2023-04-15T01:43:45.098Z,603.00
2023-04-15T01:44:45.165Z,599.00
2023-04-15T01:45:45.223Z,612.00
2023-04-15T01:46:45.308Z,608.00
2023-04-15T01:47:45.341Z,612.00
2023-04-15T01:48:45.384Z,604.00
2023-04-15T01:49:45.427Z,601.00
2023-04-15T01:50:45.510Z,605.00
2023-04-15T01:51:45.558Z,605.00
2023-04-15T01:52:45.632Z,601.00
2023-04-15T01:53:45.665Z,608.00
2023-04-15T01:54:45.823Z,601.00
2023-04-15T01:55:45.794Z,605.00
2023-04-15T01:56:45.868Z,598.00
2023-04-15T01:57:45.998Z,600.00
2023-04-15T01:58:46.005Z,591.00
2023-04-15T01:59:46.134Z,589.00
2023-04-15T02:00:46.164Z,586.00
2023-04-15T02:01:46.185Z,573.00
2023-04-15T02:02:46.252Z,570.00
2023-04-15T02:03:46.331Z,569.00
2023-04-15T02:04:46.247Z,563.00
2023-04-15T02:05:46.335Z,540.00
2023-04-15T02:06:46.378Z,542.00
2023-04-15T02:07:46.420Z,536.00
2023-04-15T02:08:46.453Z,529.00
2023-04-15T02:09:46.501Z,521.00
2023-04-15T02:10:46.568Z,515.00
2023-04-15T02:11:46.588Z,511.00
2023-04-15T02:12:46.644Z,506.00
2023-04-15T02:13:46.625Z,505.00
2023-04-15T02:14:46.700Z,508.00
2023-04-15T02:15:46.742Z,512.00
2023-04-15T02:16:46.819Z,517.00
2023-04-15T02:17:46.825Z,521.00
2023-04-15T02:18:46.908Z,512.00
2023-04-15T02:19:46.914Z,521.00
2023-04-15T02:20:47.021Z,518.00
2023-04-15T02:21:47.097Z,523.00
2023-04-15T02:22:47.121Z,522.00
2023-04-15T02:23:47.102Z,527.00
2023-04-15T02:24:47.184Z,523.00
2023-04-15T02:25:53.511Z,524.00
2023-04-15T02:26:48.226Z,524.00
2023-04-15T02:27:47.287Z,526.00
2023-04-15T02:28:47.204Z,532.00
2023-04-15T02:29:47.223Z,538.00
2023-04-15T02:30:47.151Z,555.00
2023-04-15T02:31:47.256Z,564.00
2023-04-15T02:32:47.227Z,566.00
2023-04-15T02:33:47.156Z,574.00
2023-04-15T02:34:47.187Z,574.00
2023-04-15T02:35:47.159Z,583.00
2023-04-15T02:36:47.193Z,581.00
2023-04-15T02:37:47.298Z,584.00
2023-04-15T02:38:47.310Z,591.00
2023-04-15T02:39:47.351Z,599.00
2023-04-15T02:40:47.432Z,600.00
2023-04-15T02:41:47.506Z,599.00
2023-04-15T02:42:47.532Z,608.00
2023-04-15T02:43:47.671Z,603.00
2023-04-15T02:44:47.778Z,613.00
2023-04-15T02:45:47.819Z,597.00
2023-04-15T02:46:47.842Z,598.00
2023-04-15T02:47:47.931Z,598.00
2023-04-15T02:48:47.986Z,597.00
2023-04-15T02:49:47.985Z,596.00
2023-04-15T02:50:48.185Z,591.00
2023-04-15T02:51:48.129Z,584.00
2023-04-15T02:52:48.158Z,596.00
2023-04-15T02:53:48.238Z,594.00
2023-04-15T02:54:48.304Z,598.00
2023-04-15T02:55:48.351Z,591.00
2023-04-15T02:56:48.430Z,594.00
2023-04-15T02:57:48.458Z,605.00
2023-04-15T02:58:48.503Z,605.00
2023-04-15T02:59:48.570Z,599.00
2023-04-15T03:00:48.661Z,602.00
2023-04-15T03:01:48.797Z,601.00
2023-04-15T03:02:48.836Z,609.00
2023-04-15T03:03:48.897Z,610.00
2023-04-15T03:04:48.880Z,608.00
2023-04-15T03:05:48.996Z,610.00
2023-04-15T03:06:48.987Z,607.00
2023-04-15T03:07:49.000Z,611.00
2023-04-15T03:08:49.090Z,609.00
2023-04-15T03:09:49.129Z,611.00
2023-04-15T03:10:49.178Z,605.00
2023-04-15T03:11:49.264Z,604.00
2023-04-15T03:12:49.282Z,599.00
2023-04-15T03:13:49.317Z,584.00
2023-04-15T03:14:49.402Z,588.00
2023-04-15T03:15:49.495Z,590.00
2023-04-15T03:16:49.488Z,586.00
2023-04-15T03:17:49.860Z,584.00
2023-04-15T03:18:49.625Z,582.00
2023-04-15T03:19:49.699Z,582.00
2023-04-15T03:20:49.758Z,581.00
2023-04-15T03:21:49.816Z,580.00
2023-04-15T03:22:49.853Z,580.00
2023-04-15T03:23:49.875Z,578.00
2023-04-15T03:24:50.045Z,569.00
2023-04-15T03:25:50.049Z,572.00
2023-04-15T03:26:50.045Z,554.00
2023-04-15T03:27:50.084Z,548.00
2023-04-15T03:28:50.117Z,546.00
2023-04-15T03:29:50.170Z,541.00
2023-04-15T03:30:50.231Z,537.00
2023-04-15T03:31:50.233Z,523.00
2023-04-15T03:32:50.246Z,517.00
2023-04-15T03:33:50.247Z,507.00
2023-04-15T03:35:14.992Z,500.00
2023-04-15T03:36:14.992Z,500.00
2023-04-15T03:37:14.970Z,500.00
2023-04-15T03:38:15.001Z,500.00
2023-04-15T03:39:15.016Z,500.00
2023-04-15T03:40:14.974Z,501.00
2023-04-15T03:41:14.985Z,502.00
2023-04-15T03:42:14.931Z,498.00
2023-04-15T03:43:14.939Z,503.00
2023-04-15T03:44:14.958Z,508.00
2023-04-15T03:45:14.885Z,508.00
2023-04-15T03:46:14.964Z,509.00
2023-04-15T03:47:14.912Z,520.00
2023-04-15T03:48:17.186Z,519.00
2023-04-15T03:49:15.124Z,519.00
2023-04-15T03:50:15.139Z,521.00
2023-04-15T03:51:15.161Z,525.00
2023-04-15T03:52:15.201Z,531.00
2023-04-15T03:53:15.221Z,542.00
2023-04-15T03:54:15.254Z,542.00
2023-04-15T03:55:15.286Z,544.00
2023-04-15T03:56:15.273Z,544.00
2023-04-15T03:57:15.274Z,541.00
2023-04-15T03:58:15.319Z,541.00
2023-04-15T03:59:15.356Z,543.00
2023-04-15T04:00:15.407Z,542.00
2023-04-15T04:01:15.389Z,551.00
2023-04-15T04:02:15.533Z,540.00
2023-04-15T04:03:15.566Z,545.00
2023-04-15T04:04:15.495Z,539.00
2023-04-15T04:05:15.403Z,537.00
2023-04-15T04:06:15.415Z,537.00
2023-04-15T04:07:15.433Z,539.00
2023-04-15T04:08:15.410Z,540.00
2023-04-15T04:09:15.385Z,546.00
2023-04-15T04:10:15.450Z,552.00
2023-04-15T04:11:15.471Z,572.00
2023-04-15T04:12:15.479Z,576.00
2023-04-15T04:13:15.507Z,592.00
2023-04-15T04:14:15.586Z,593.00
2023-04-15T04:15:15.519Z,608.00
2023-04-15T04:16:15.665Z,614.00
2023-04-15T04:17:15.537Z,620.00
2023-04-15T04:18:15.597Z,626.00
2023-04-15T04:19:15.593Z,628.00
2023-04-15T04:20:15.718Z,631.00
2023-04-15T04:21:15.713Z,643.00
2023-04-15T04:22:15.680Z,650.00
2023-04-15T04:23:15.713Z,651.00
2023-04-15T04:24:15.765Z,653.00
2023-04-15T04:25:15.766Z,647.00
2023-04-15T04:26:15.853Z,653.00
2023-04-15T04:27:15.864Z,642.00
2023-04-15T04:28:15.873Z,639.00
2023-04-15T04:29:15.981Z,623.00
2023-04-15T04:30:15.898Z,627.00
2023-04-15T04:31:16.015Z,630.00
2023-04-15T04:32:16.122Z,618.00
2023-04-15T04:33:16.000Z,615.00
2023-04-15T04:34:16.067Z,608.00
2023-04-15T04:35:16.067Z,598.00
2023-04-15T04:36:16.061Z,595.00
2023-04-15T04:37:16.075Z,582.00
2023-04-15T04:38:16.075Z,583.00
2023-04-15T04:39:16.092Z,577.00
2023-04-15T04:40:16.149Z,578.00
2023-04-15T04:41:16.186Z,578.00
2023-04-15T04:42:16.152Z,570.00
2023-04-15T04:43:16.163Z,571.00
2023-04-15T04:44:16.240Z,582.00
2023-04-15T04:45:16.183Z,586.00
2023-04-15T04:46:16.256Z,586.00
2023-04-15T04:47:16.235Z,590.00
2023-04-15T04:48:16.222Z,596.00
2023-04-15T04:49:16.227Z,599.00
2023-04-15T04:50:16.255Z,613.00
2023-04-15T04:51:16.230Z,613.00
2023-04-15T04:52:16.222Z,619.00
2023-04-15T04:53:16.244Z,614.00
2023-04-15T04:54:16.268Z,628.00
2023-04-15T04:55:16.200Z,637.00
2023-04-15T04:56:16.280Z,634.00
2023-04-15T04:57:16.208Z,631.00
2023-04-15T04:58:16.206Z,632.00
2023-04-15T04:59:16.944Z,629.00
2023-04-15T05:00:16.196Z,626.00
2023-04-15T05:01:16.224Z,627.00
2023-04-15T05:02:16.268Z,619.00
2023-04-15T05:03:16.273Z,613.00
2023-04-15T05:04:16.301Z,607.00
2023-04-15T05:05:16.223Z,606.00
2023-04-15T05:06:16.156Z,598.00
2023-04-15T05:07:16.150Z,585.00
2023-04-15T05:08:16.157Z,575.00
2023-04-15T05:09:16.194Z,568.00
2023-04-15T05:10:16.203Z,557.00
2023-04-15T05:11:16.159Z,553.00
2023-04-15T05:12:16.177Z,533.00
2023-04-15T05:13:16.115Z,518.00
2023-04-15T05:14:16.128Z,511.00
2023-04-15T05:15:16.134Z,507.00
2023-04-15T05:16:16.147Z,504.00
2023-04-15T05:17:16.144Z,508.00
2023-04-15T05:18:16.157Z,510.00
2023-04-15T05:19:16.145Z,512.00
2023-04-15T05:20:16.157Z,509.00
2023-04-15T05:21:16.122Z,508.00
2023-04-15T05:22:16.134Z,505.00
2023-04-15T05:23:16.140Z,506.00
2023-04-15T05:24:16.128Z,502.00
2023-04-15T05:25:16.142Z,502.00
2023-04-15T05:26:16.165Z,505.00
2023-04-15T05:27:16.161Z,500.00
2023-04-15T05:28:16.127Z,500.00
2023-04-15T05:29:16.298Z,500.00
2023-04-15T05:30:16.176Z,500.00
2023-04-15T05:31:16.248Z,502.00
2023-04-15T05:32:16.206Z,509.00
2023-04-15T05:33:16.148Z,502.00
2023-04-15T05:34:16.204Z,511.00
2023-04-15T05:35:16.170Z,504.00
2023-04-15T05:36:16.229Z,504.00
2023-04-15T05:37:16.180Z,516.00
2023-04-15T05:38:16.184Z,509.00
2023-04-15T05:39:16.205Z,517.00
2023-04-15T05:40:16.195Z,527.00
2023-04-15T05:41:18.344Z,527.00
2023-04-15T05:42:16.209Z,531.00
2023-04-15T05:43:16.206Z,544.00
2023-04-15T05:44:16.216Z,554.00
2023-04-15T05:45:16.201Z,556.00
2023-04-15T05:46:16.194Z,563.00
2023-04-15T05:47:16.135Z,579.00
2023-04-15T05:48:16.201Z,573.00
2023-04-15T05:49:16.197Z,584.00
2023-04-15T05:50:16.160Z,585.00
2023-04-15T05:51:16.127Z,595.00
2023-04-15T05:52:16.185Z,592.00
2023-04-15T05:53:16.132Z,604.00
2023-04-15T05:54:17.324Z,614.00
2023-04-15T05:55:16.106Z,634.00
2023-04-15T05:56:16.075Z,636.00
2023-04-15T05:57:16.114Z,644.00
2023-04-15T05:58:16.121Z,661.00
2023-04-15T05:59:16.096Z,664.00
2023-04-15T06:00:16.074Z,663.00
2023-04-15T06:01:16.725Z,666.00
2023-04-15T06:02:16.139Z,666.00
2023-04-15T06:03:16.077Z,693.00
2023-04-15T06:04:16.142Z,686.00
2023-04-15T06:05:16.042Z,675.00
2023-04-15T06:06:16.049Z,678.00
2023-04-15T06:07:16.016Z,671.00
2023-04-15T06:08:16.010Z,674.00
2023-04-15T06:09:16.042Z,709.00
2023-04-15T06:10:15.960Z,695.00
2023-04-15T06:11:15.984Z,738.00
2023-04-15T06:12:16.000Z,745.00
2023-04-15T06:13:15.957Z,785.00
2023-04-15T06:14:15.963Z,811.00
2023-04-15T06:15:15.979Z,781.00
2023-04-15T06:16:15.993Z,773.00
2023-04-15T06:17:15.979Z,759.00
2023-04-15T06:18:15.948Z,764.00
2023-04-15T06:19:15.964Z,755.00
2023-04-15T06:20:15.957Z,742.00
2023-04-15T06:21:15.943Z,709.00
2023-04-15T06:22:15.917Z,700.00
2023-04-15T06:23:15.930Z,691.00
2023-04-15T06:24:15.942Z,673.00
2023-04-15T06:25:15.934Z,671.00
2023-04-15T06:26:15.946Z,684.00
2023-04-15T06:27:16.000Z,665.00
2023-04-15T06:28:15.998Z,660.00
2023-04-15T06:29:15.966Z,649.00
2023-04-15T06:30:15.999Z,641.00
2023-04-15T06:31:16.016Z,631.00
2023-04-15T06:32:16.016Z,612.00
2023-04-15T06:33:16.128Z,596.00
2023-04-15T06:34:16.051Z,580.00
2023-04-15T06:35:16.097Z,574.00
2023-04-15T06:36:16.059Z,568.00
2023-04-15T06:37:16.151Z,578.00
2023-04-15T06:38:16.697Z,576.00
2023-04-15T06:39:16.119Z,583.00
2023-04-15T06:40:16.134Z,589.00
2023-04-15T06:41:16.116Z,597.00
2023-04-15T06:42:16.166Z,599.00
2023-04-15T06:43:16.165Z,613.00
2023-04-15T06:44:16.184Z,624.00
2023-04-15T06:45:16.160Z,636.00
2023-04-15T06:46:16.227Z,643.00
2023-04-15T06:47:16.277Z,646.00
2023-04-15T06:48:16.248Z,639.00
2023-04-15T06:49:16.228Z,616.00
2023-04-15T06:50:16.231Z,609.00
2023-04-15T06:51:16.246Z,599.00
2023-04-15T06:52:16.243Z,594.00
2023-04-15T06:53:16.283Z,587.00
2023-04-15T06:54:16.279Z,601.00
2023-04-15T06:55:16.267Z,600.00
2023-04-15T06:56:16.291Z,598.00
2023-04-15T06:57:16.351Z,612.00
2023-04-15T06:58:16.319Z,606.00
2023-04-15T06:59:16.389Z,595.00
2023-04-15T07:00:16.365Z,566.00
2023-04-15T07:01:16.452Z,545.00
2023-04-15T07:02:16.440Z,520.00
2023-04-15T07:03:16.452Z,506.00
2023-04-15T07:04:16.413Z,500.00
2023-04-15T07:05:16.440Z,502.00
2023-04-15T07:06:16.446Z,506.00
2023-04-15T07:07:16.395Z,507.00
2023-04-15T07:08:16.426Z,504.00
2023-04-15T07:09:16.430Z,503.00
2023-04-15T07:10:16.482Z,500.00
2023-04-15T07:11:16.471Z,507.00
2023-04-15T07:12:16.466Z,500.00
2023-04-15T07:13:16.453Z,508.00
2023-04-15T07:14:16.474Z,500.00
2023-04-15T07:15:16.512Z,507.00
2023-04-15T07:16:16.507Z,500.00
2023-04-15T07:17:16.540Z,494.00
2023-04-15T07:18:16.457Z,500.00
2023-04-15T07:19:16.504Z,506.00
2023-04-15T07:20:16.501Z,504.00
2023-04-15T07:21:16.515Z,500.00
2023-04-15T07:22:16.509Z,501.00
2023-04-15T07:23:16.564Z,505.00
2023-04-15T07:24:16.598Z,502.00
2023-04-15T07:25:16.483Z,504.00
2023-04-15T07:26:16.552Z,497.00
2023-04-15T07:27:16.488Z,500.00
2023-04-15T07:28:16.526Z,511.00
2023-04-15T07:29:16.586Z,507.00
2023-04-15T07:30:16.537Z,500.00
2023-04-15T07:31:16.582Z,508.00
2023-04-15T07:32:16.534Z,506.00
2023-04-15T07:33:16.539Z,500.00
2023-04-15T07:34:16.525Z,500.00
2023-04-15T07:35:16.545Z,508.00
2023-04-15T07:36:16.563Z,500.00
2023-04-15T07:37:16.517Z,509.00
2023-04-15T07:38:16.484Z,516.00
2023-04-15T07:39:16.484Z,498.00
2023-04-15T07:40:16.564Z,527.00
2023-04-15T07:41:16.565Z,527.00
2023-04-15T07:42:16.502Z,515.00
2023-04-15T07:43:16.493Z,535.00
2023-04-15T07:44:16.562Z,543.00
2023-04-15T07:45:16.496Z,557.00
2023-04-15T07:46:16.549Z,564.00
2023-04-15T07:47:16.525Z,564.00
2023-04-15T07:48:16.533Z,559.00
2023-04-15T07:49:16.497Z,560.00
2023-04-15T07:50:16.513Z,576.00
2023-04-15T07:51:16.514Z,581.00
2023-04-15T07:52:16.483Z,557.00
2023-04-15T07:53:16.524Z,558.00
2023-04-15T07:54:16.509Z,541.00
2023-04-15T07:55:16.462Z,559.00
2023-04-15T07:56:16.480Z,561.00
2023-04-15T07:57:16.488Z,560.00
2023-04-15T07:58:16.492Z,554.00
2023-04-15T07:59:16.518Z,538.00
2023-04-15T08:00:16.537Z,558.00
2023-04-15T08:01:16.479Z,544.00
2023-04-15T08:02:16.613Z,544.00
2023-04-15T08:03:16.658Z,542.00
2023-04-15T08:04:16.655Z,533.00
2023-04-15T08:05:16.669Z,543.00
2023-04-15T08:06:16.537Z,524.00
2023-04-15T08:07:16.566Z,520.00
2023-04-15T08:08:16.569Z,527.00
2023-04-15T08:09:16.523Z,515.00
2023-04-15T08:10:16.582Z,523.00
2023-04-15T08:11:16.569Z,531.00
2023-04-15T08:12:16.627Z,539.00
2023-04-15T08:13:16.639Z,543.00
2023-04-15T08:14:16.626Z,545.00
2023-04-15T08:15:16.681Z,554.00
2023-04-15T08:16:16.703Z,561.00
2023-04-15T08:17:16.780Z,572.00
2023-04-15T08:18:16.803Z,588.00
2023-04-15T08:19:16.916Z,598.00
2023-04-15T08:20:16.927Z,597.00
2023-04-15T08:21:16.984Z,595.00
2023-04-15T08:22:17.904Z,604.00
2023-04-15T08:23:17.051Z,603.00
2023-04-15T08:24:17.173Z,612.00
2023-04-15T08:25:17.141Z,631.00
2023-04-15T08:26:17.260Z,628.00
2023-04-15T08:27:17.276Z,639.00
2023-04-15T08:28:17.342Z,633.00
2023-04-15T08:29:17.395Z,648.00
2023-04-15T08:30:17.457Z,654.00
2023-04-15T08:31:17.543Z,656.00
2023-04-15T08:32:17.584Z,658.00
2023-04-15T08:33:17.651Z,642.00
2023-04-15T08:34:17.693Z,646.00
2023-04-15T08:35:17.763Z,631.00
2023-04-15T08:36:17.832Z,619.00
2023-04-15T08:37:17.947Z,599.00
2023-04-15T08:38:17.961Z,602.00
2023-04-15T08:39:18.060Z,590.00
2023-04-15T08:40:18.067Z,588.00
2023-04-15T08:41:18.182Z,589.00
2023-04-15T08:42:18.218Z,581.00
2023-04-15T08:43:18.320Z,594.00
2023-04-15T08:44:18.347Z,594.00
2023-04-15T08:45:18.420Z,610.00
2023-04-15T08:46:18.507Z,607.00
2023-04-15T08:47:18.535Z,610.00
2023-04-15T08:48:18.676Z,588.00
2023-04-15T08:49:18.755Z,597.00
2023-04-15T08:50:18.728Z,608.00
2023-04-15T08:51:18.762Z,620.00
2023-04-15T08:52:18.879Z,630.00
2023-04-15T08:53:18.862Z,626.00
2023-04-15T08:54:18.953Z,642.00
2023-04-15T08:55:18.992Z,643.00
2023-04-15T08:56:19.099Z,654.00
2023-04-15T08:57:19.113Z,657.00
2023-04-15T08:58:19.199Z,656.00
2023-04-15T08:59:19.217Z,661.00
2023-04-15T09:00:19.296Z,681.00
2023-04-15T09:01:19.364Z,673.00
2023-04-15T09:02:19.420Z,671.00
2023-04-15T09:03:19.566Z,698.00
2023-04-15T09:05:19.528Z,716.00
2023-04-15T09:06:19.624Z,718.00
2023-04-15T09:07:19.644Z,754.00
2023-04-15T09:08:19.727Z,797.00
2023-04-15T09:09:19.815Z,795.00
2023-04-15T09:10:19.822Z,789.00
2023-04-15T09:11:20.367Z,807.00
2023-04-15T09:12:19.922Z,781.00
2023-04-15T09:13:19.973Z,785.00
2023-04-15T09:14:20.037Z,797.00
2023-04-15T09:15:20.062Z,804.00
2023-04-15T09:16:20.155Z,827.00
2023-04-15T09:17:20.216Z,868.00
2023-04-15T09:18:20.170Z,829.00
2023-04-15T09:19:20.207Z,818.00
2023-04-15T09:20:20.294Z,788.00
2023-04-15T09:21:20.323Z,788.00
2023-04-15T09:22:20.402Z,757.00
2023-04-15T09:23:20.413Z,748.00
2023-04-15T09:24:20.461Z,767.00
2023-04-15T09:25:20.522Z,791.00
2023-04-15T09:26:20.523Z,839.00
2023-04-15T09:27:20.596Z,848.00
2023-04-15T09:28:20.599Z,863.00
2023-04-15T09:29:20.647Z,890.00
2023-04-15T09:30:20.737Z,945.00
2023-04-15T09:31:20.732Z,922.00
2023-04-15T09:32:20.733Z,957.00
2023-04-15T09:33:20.739Z,978.00
2023-04-15T09:34:20.803Z,994.00
2023-04-15T09:35:20.834Z,993.00
2023-04-15T09:36:20.843Z,1000.00
2023-04-15T09:37:31.577Z,1001.00
2023-04-15T09:38:21.873Z,970.00
2023-04-15T09:39:20.894Z,973.00
2023-04-15T09:40:20.862Z,1004.00
2023-04-15T09:41:20.888Z,1021.00
2023-04-15T09:42:20.837Z,1039.00
2023-04-15T09:43:20.850Z,999.00
2023-04-15T09:44:20.828Z,996.00
2023-04-15T09:45:20.829Z,949.00
2023-04-15T09:46:20.846Z,1000.00
2023-04-15T09:47:20.806Z,993.00
2023-04-15T09:48:20.825Z,1011.00
2023-04-15T09:49:21.293Z,1003.00
2023-04-15T09:50:20.752Z,1041.00
2023-04-15T09:51:20.817Z,957.00
2023-04-15T09:52:20.745Z,947.00
2023-04-15T09:53:20.739Z,971.00
2023-04-15T09:54:20.748Z,990.00
2023-04-15T09:55:20.739Z,940.00
2023-04-15T09:56:20.739Z,886.00
2023-04-15T09:57:20.745Z,910.00
2023-04-15T09:58:20.867Z,892.00
2023-04-15T09:59:21.877Z,916.00
2023-04-15T10:00:20.859Z,913.00
2023-04-15T10:01:20.868Z,899.00
2023-04-15T10:02:21.118Z,954.00
2023-04-15T10:04:20.968Z,899.00
2023-04-15T10:05:20.904Z,902.00
2023-04-15T10:06:20.969Z,919.00
2023-04-15T10:07:21.019Z,933.00
2023-04-15T10:08:20.975Z,934.00
2023-04-15T10:09:20.958Z,981.00
2023-04-15T10:10:27.802Z,996.00
2023-04-15T10:11:20.943Z,982.00
2023-04-15T10:12:20.935Z,997.00
2023-04-15T10:13:20.980Z,999.00
2023-04-15T10:14:20.920Z,1017.00
2023-04-15T10:15:20.940Z,1009.00
2023-04-15T10:16:20.949Z,1039.00
2023-04-15T10:17:20.914Z,1027.00
2023-04-15T10:18:20.904Z,1034.00
2023-04-15T10:19:20.935Z,1047.00
2023-04-15T10:20:20.908Z,1068.00
2023-04-15T10:21:20.948Z,1094.00
2023-04-15T10:22:20.869Z,1082.00
2023-04-15T10:23:20.850Z,1063.00
2023-04-15T10:24:20.866Z,1069.00
2023-04-15T10:25:20.876Z,1045.00
2023-04-15T10:26:20.897Z,971.00
2023-04-15T10:27:20.882Z,957.00
2023-04-15T10:28:20.853Z,957.00
2023-04-15T10:29:20.891Z,927.00
2023-04-15T10:30:20.788Z,912.00
2023-04-15T10:31:20.863Z,881.00
2023-04-15T10:32:20.838Z,919.00
2023-04-15T10:33:20.799Z,911.00
2023-04-15T10:34:20.800Z,917.00
2023-04-15T10:35:20.841Z,921.00
2023-04-15T10:36:20.772Z,974.00
2023-04-15T10:37:20.812Z,952.00
2023-04-15T10:38:20.764Z,983.00
2023-04-15T10:39:20.759Z,980.00
2023-04-15T10:40:20.754Z,971.00
2023-04-15T10:41:21.583Z,990.00
2023-04-15T10:42:20.737Z,1026.00
2023-04-15T10:43:20.755Z,1036.00
2023-04-15T10:44:20.747Z,1038.00
2023-04-15T10:45:20.710Z,1053.00
2023-04-15T10:46:20.746Z,1079.00
2023-04-15T10:47:20.707Z,1107.00
2023-04-15T10:48:20.696Z,1107.00
2023-04-15T10:49:20.731Z,1113.00
2023-04-15T10:50:20.692Z,1148.00
2023-04-15T10:51:20.664Z,1126.00
2023-04-15T10:52:20.770Z,1158.00
2023-04-15T10:53:21.857Z,1171.00
2023-04-15T10:54:20.663Z,1176.00
2023-04-15T10:55:20.683Z,1177.00
2023-04-15T10:56:20.620Z,1201.00
2023-04-15T10:57:20.666Z,1228.00
2023-04-15T10:58:20.597Z,1213.00
2023-04-15T10:59:22.427Z,1179.00
2023-04-15T11:00:20.579Z,1181.00
2023-04-15T11:01:20.659Z,1227.00
2023-04-15T11:02:20.744Z,1201.00
2023-04-15T11:03:20.659Z,1191.00
2023-04-15T11:04:20.615Z,1210.00
2023-04-15T11:05:20.603Z,1181.00
2023-04-15T11:06:20.543Z,1179.00
2023-04-15T11:07:20.550Z,1189.00
2023-04-15T11:08:20.559Z,1182.00
2023-04-15T11:09:20.549Z,1200.00
2023-04-15T11:10:20.566Z,1184.00
2023-04-15T11:11:20.511Z,1193.00
2023-04-15T11:12:20.480Z,1183.00
2023-04-15T11:13:20.501Z,1196.00
2023-04-15T11:14:20.460Z,1184.00
2023-04-15T11:15:20.483Z,1185.00
2023-04-15T11:16:20.502Z,1184.00
2023-04-15T11:17:20.459Z,1172.00
2023-04-15T11:18:20.461Z,1181.00
2023-04-15T11:19:20.470Z,1214.00
2023-04-15T11:20:20.435Z,1182.00
2023-04-15T11:21:20.503Z,1153.00
2023-04-15T11:22:20.425Z,1178.00
2023-04-15T11:23:20.423Z,1191.00
2023-04-15T11:24:20.439Z,1200.00
2023-04-15T11:25:20.438Z,1208.00
2023-04-15T11:26:20.434Z,1194.00
2023-04-15T11:27:20.417Z,1177.00
2023-04-15T11:28:20.399Z,1176.00
2023-04-15T11:29:20.365Z,1168.00
2023-04-15T11:30:20.380Z,1165.00
2023-04-15T11:31:20.474Z,1211.00
2023-04-15T11:32:20.374Z,1182.00
2023-04-15T11:33:20.375Z,1201.00
2023-04-15T11:34:20.324Z,1216.00
2023-04-15T11:35:20.323Z,1170.00
2023-04-15T11:36:20.340Z,1185.00
2023-04-15T11:37:20.336Z,1186.00
2023-04-15T11:38:20.336Z,1190.00
2023-04-15T11:39:20.330Z,1199.00
2023-04-15T11:40:20.378Z,1193.00
2023-04-15T11:41:20.416Z,1185.00
2023-04-15T11:42:20.464Z,1166.00
2023-04-15T11:43:20.533Z,1175.00
2023-04-15T11:44:20.586Z,1167.00
2023-04-15T11:45:20.608Z,1185.00
2023-04-15T11:46:20.805Z,1203.00
2023-04-15T11:47:20.782Z,1170.00
2023-04-15T11:48:20.807Z,1154.00
2023-04-15T11:49:20.813Z,1207.00
2023-04-15T11:50:20.891Z,1207.00
2023-04-15T11:51:20.918Z,1212.00
2023-04-15T11:52:20.943Z,1210.00
2023-04-15T11:53:21.057Z,1249.00
2023-04-15T11:54:21.016Z,1223.00
2023-04-15T11:55:21.302Z,1246.00
2023-04-15T11:56:21.117Z,1250.00
2023-04-15T11:57:21.143Z,1258.00
2023-04-15T11:58:21.143Z,1231.00
2023-04-15T11:59:21.191Z,1199.00
2023-04-15T12:00:21.182Z,1167.00
2023-04-15T12:01:21.197Z,1179.00
2023-04-15T12:02:21.313Z,1191.00
2023-04-15T12:03:21.351Z,1172.00
2023-04-15T12:04:23.494Z,1096.00
2023-04-15T12:05:21.461Z,1097.00
2023-04-15T12:06:21.349Z,1084.00
2023-04-15T12:07:21.245Z,1065.00
2023-04-15T12:08:21.235Z,1062.00
2023-04-15T12:09:21.254Z,1034.00
2023-04-15T12:10:21.277Z,1028.00
2023-04-15T12:11:21.234Z,1017.00
2023-04-15T12:12:21.191Z,954.00
2023-04-15T12:13:21.224Z,968.00
2023-04-15T12:14:21.234Z,978.00
2023-04-15T12:15:21.186Z,955.00
2023-04-15T12:16:21.252Z,982.00
2023-04-15T12:17:21.235Z,975.00
2023-04-15T12:18:21.212Z,961.00
2023-04-15T12:19:21.203Z,991.00
2023-04-15T12:20:21.148Z,993.00
2023-04-15T12:21:21.194Z,1001.00
2023-04-15T12:22:21.159Z,1024.00
2023-04-15T12:23:21.147Z,967.00
2023-04-15T12:24:21.183Z,991.00
2023-04-15T12:25:21.129Z,988.00
2023-04-15T12:26:21.132Z,917.00
2023-04-15T12:27:21.163Z,982.00